sensor_id;sensor_type;location;lat;lon;timestamp;temperature;humidity
7194;DHT22;3638;48.820;9.244;2023-04-01T00:01:10;9.00;99.90
7194;DHT22;3638;48.820;9.244;2023-04-01T00:03:40;8.90;99.90
7194;DHT22;3638;48.820;9.244;2023-04-01T00:06:08;8.90;99.90
7194;DHT22;3638;48.820;9.244;2023-04-01T00:08:35;8.90;99.90
7194;DHT22;3638;48.820;9.244;2023-04-01T00:11:04;9.00;99.90
7194;DHT22;3638;48.820;9.244;2023-04-01T00:13:31;9.00;99.90
7194;DHT22;3638;48.820;9.244;2023-04-01T00:15:58;9.00;99.90
7194;DHT22;3638;48.820;9.244;2023-04-01T00:18:25;9.00;99.90
7194;DHT22;3638;48.820;9.244;2023-04-01T00:20:53;9.00;99.90
7194;DHT22;3638;48.820;9.244;2023-04-01T00:23:20;9.00;99.90
7194;DHT22;3638;48.820;9.244;2023-04-01T00:25:48;9.00;99.90
7194;DHT22;3638;48.820;9.244;2023-04-01T00:28:17;9.10;99.90
7194;DHT22;3638;48.820;9.244;2023-04-01T00:30:44;9.10;99.90
7194;DHT22;3638;48.820;9.244;2023-04-01T00:33:11;9.10;99.90
7194;DHT22;3638;48.820;9.244;2023-04-01T00:35:39;9.10;99.90
7194;DHT22;3638;48.820;9.244;2023-04-01T00:38:07;9.10;99.90
7194;DHT22;3638;48.820;9.244;2023-04-01T00:40:35;9.00;99.90
7194;DHT22;3638;48.820;9.244;2023-04-01T00:43:03;9.00;99.90
7194;DHT22;3638;48.820;9.244;2023-04-01T00:45:39;9.10;99.90
7194;DHT22;3638;48.820;9.244;2023-04-01T00:48:10;9.10;99.90
7194;DHT22;3638;48.820;9.244;2023-04-01T00:50:40;9.10;99.90
7194;DHT22;3638;48.820;9.244;2023-04-01T00:53:09;9.00;99.90
7194;DHT22;3638;48.820;9.244;2023-04-01T00:55:40;9.10;99.90
7194;DHT22;3638;48.820;9.244;2023-04-01T00:58:14;9.10;99.90
7194;DHT22;3638;48.820;9.244;2023-04-01T01:00:45;9.10;99.90
7194;DHT22;3638;48.820;9.244;2023-04-01T01:03:13;9.10;99.90
7194;DHT22;3638;48.820;9.244;2023-04-01T01:06:08;9.10;99.90
7194;DHT22;3638;48.820;9.244;2023-04-01T01:08:52;9.10;99.90
7194;DHT22;3638;48.820;9.244;2023-04-01T01:11:31;9.10;99.90
7194;DHT22;3638;48.820;9.244;2023-04-01T01:14:07;9.30;99.90
7194;DHT22;3638;48.820;9.244;2023-04-01T01:16:43;9.30;99.90
7194;DHT22;3638;48.820;9.244;2023-04-01T01:19:28;9.20;99.90
7194;DHT22;3638;48.820;9.244;2023-04-01T01:22:20;9.10;99.90
7194;DHT22;3638;48.820;9.244;2023-04-01T01:25:02;9.10;99.90
7194;DHT22;3638;48.820;9.244;2023-04-01T01:27:40;9.10;99.90
7194;DHT22;3638;48.820;9.244;2023-04-01T01:30:18;9.10;99.90
7194;DHT22;3638;48.820;9.244;2023-04-01T01:33:10;9.10;99.90
7194;DHT22;3638;48.820;9.244;2023-04-01T01:35:46;9.00;99.90
7194;DHT22;3638;48.820;9.244;2023-04-01T01:38:17;9.10;99.90
7194;DHT22;3638;48.820;9.244;2023-04-01T01:40:48;9.10;99.90
7194;DHT22;3638;48.820;9.244;2023-04-01T01:43:22;9.10;99.90
7194;DHT22;3638;48.820;9.244;2023-04-01T01:45:52;7.50;99.90
7194;DHT22;3638;48.820;9.244;2023-04-01T01:48:22;9.10;99.90
7194;DHT22;3638;48.820;9.244;2023-04-01T01:50:52;9.10;99.90
7194;DHT22;3638;48.820;9.244;2023-04-01T01:53:20;9.00;99.90
7194;DHT22;3638;48.820;9.244;2023-04-01T01:55:47;9.00;99.90
7194;DHT22;3638;48.820;9.244;2023-04-01T01:58:19;9.00;99.90
7194;DHT22;3638;48.820;9.244;2023-04-01T02:00:50;9.00;99.90
7194;DHT22;3638;48.820;9.244;2023-04-01T02:03:19;8.90;99.90
7194;DHT22;3638;48.820;9.244;2023-04-01T02:05:49;8.90;99.90
7194;DHT22;3638;48.820;9.244;2023-04-01T02:08:22;8.80;99.90
7194;DHT22;3638;48.820;9.244;2023-04-01T02:11:00;8.80;99.90
7194;DHT22;3638;48.820;9.244;2023-04-01T02:13:31;8.70;99.90
7194;DHT22;3638;48.820;9.244;2023-04-01T02:16:05;8.70;99.90
7194;DHT22;3638;48.820;9.244;2023-04-01T02:18:36;8.70;99.90
7194;DHT22;3638;48.820;9.244;2023-04-01T02:21:06;8.70;99.90
7194;DHT22;3638;48.820;9.244;2023-04-01T02:23:35;8.60;99.90
7194;DHT22;3638;48.820;9.244;2023-04-01T02:26:05;8.60;99.90
7194;DHT22;3638;48.820;9.244;2023-04-01T02:28:34;8.60;99.90
7194;DHT22;3638;48.820;9.244;2023-04-01T02:31:04;8.70;99.90
7194;DHT22;3638;48.820;9.244;2023-04-01T02:33:31;8.70;99.90
7194;DHT22;3638;48.820;9.244;2023-04-01T02:35:59;8.70;99.90
7194;DHT22;3638;48.820;9.244;2023-04-01T02:38:27;8.70;99.90
7194;DHT22;3638;48.820;9.244;2023-04-01T02:40:57;8.60;99.90
7194;DHT22;3638;48.820;9.244;2023-04-01T02:43:25;8.60;99.90
7194;DHT22;3638;48.820;9.244;2023-04-01T02:45:52;8.60;99.90
7194;DHT22;3638;48.820;9.244;2023-04-01T02:48:19;8.60;99.90
7194;DHT22;3638;48.820;9.244;2023-04-01T02:50:46;8.50;99.90
7194;DHT22;3638;48.820;9.244;2023-04-01T02:53:13;8.50;99.90
7194;DHT22;3638;48.820;9.244;2023-04-01T02:55:41;8.50;99.90
7194;DHT22;3638;48.820;9.244;2023-04-01T02:58:08;8.60;99.90
7194;DHT22;3638;48.820;9.244;2023-04-01T03:00:35;8.60;99.90
7194;DHT22;3638;48.820;9.244;2023-04-01T03:03:02;8.60;99.90
7194;DHT22;3638;48.820;9.244;2023-04-01T03:05:29;8.60;99.90
7194;DHT22;3638;48.820;9.244;2023-04-01T03:07:56;8.60;99.90
7194;DHT22;3638;48.820;9.244;2023-04-01T03:10:23;8.50;99.90
7194;DHT22;3638;48.820;9.244;2023-04-01T03:12:51;8.50;99.90
7194;DHT22;3638;48.820;9.244;2023-04-01T03:15:18;8.50;99.90
7194;DHT22;3638;48.820;9.244;2023-04-01T03:17:45;8.50;99.90
7194;DHT22;3638;48.820;9.244;2023-04-01T03:20:13;8.60;99.90
7194;DHT22;3638;48.820;9.244;2023-04-01T03:22:40;8.60;99.90
7194;DHT22;3638;48.820;9.244;2023-04-01T03:25:08;8.60;99.90
7194;DHT22;3638;48.820;9.244;2023-04-01T03:27:35;8.70;99.90
7194;DHT22;3638;48.820;9.244;2023-04-01T03:30:04;8.60;99.90
7194;DHT22;3638;48.820;9.244;2023-04-01T03:32:32;8.60;99.90
7194;DHT22;3638;48.820;9.244;2023-04-01T03:34:59;8.60;99.90
7194;DHT22;3638;48.820;9.244;2023-04-01T03:37:26;8.50;99.90
7194;DHT22;3638;48.820;9.244;2023-04-01T03:39:53;8.50;99.90
7194;DHT22;3638;48.820;9.244;2023-04-01T03:42:20;8.40;99.90
7194;DHT22;3638;48.820;9.244;2023-04-01T03:44:47;8.40;99.90
7194;DHT22;3638;48.820;9.244;2023-04-01T03:47:15;8.40;99.90
7194;DHT22;3638;48.820;9.244;2023-04-01T03:49:42;8.40;99.90
7194;DHT22;3638;48.820;9.244;2023-04-01T03:52:09;8.50;99.90
7194;DHT22;3638;48.820;9.244;2023-04-01T03:54:37;8.50;99.90
7194;DHT22;3638;48.820;9.244;2023-04-01T03:57:04;8.40;99.90
7194;DHT22;3638;48.820;9.244;2023-04-01T03:59:31;8.50;99.90
7194;DHT22;3638;48.820;9.244;2023-04-01T04:01:58;8.40;99.90
7194;DHT22;3638;48.820;9.244;2023-04-01T04:04:27;8.40;99.90
7194;DHT22;3638;48.820;9.244;2023-04-01T04:06:54;8.30;99.90
7194;DHT22;3638;48.820;9.244;2023-04-01T04:09:21;8.30;99.90
7194;DHT22;3638;48.820;9.244;2023-04-01T04:11:48;8.30;99.90
7194;DHT22;3638;48.820;9.244;2023-04-01T04:14:15;8.30;99.90
7194;DHT22;3638;48.820;9.244;2023-04-01T04:16:42;8.40;99.90
7194;DHT22;3638;48.820;9.244;2023-04-01T04:19:09;8.40;99.90
7194;DHT22;3638;48.820;9.244;2023-04-01T04:21:37;8.30;99.90
7194;DHT22;3638;48.820;9.244;2023-04-01T04:24:04;8.50;99.90
7194;DHT22;3638;48.820;9.244;2023-04-01T04:26:32;8.50;99.90
7194;DHT22;3638;48.820;9.244;2023-04-01T04:28:59;8.50;99.90
7194;DHT22;3638;48.820;9.244;2023-04-01T04:31:26;8.50;99.90
7194;DHT22;3638;48.820;9.244;2023-04-01T04:33:54;8.50;99.90
7194;DHT22;3638;48.820;9.244;2023-04-01T04:36:21;8.40;99.90
7194;DHT22;3638;48.820;9.244;2023-04-01T04:38:49;10.10;99.90
7194;DHT22;3638;48.820;9.244;2023-04-01T04:41:17;8.30;99.90
7194;DHT22;3638;48.820;9.244;2023-04-01T04:43:49;8.20;99.90
7194;DHT22;3638;48.820;9.244;2023-04-01T04:46:17;8.20;99.90
7194;DHT22;3638;48.820;9.244;2023-04-01T04:48:45;8.20;99.90
7194;DHT22;3638;48.820;9.244;2023-04-01T04:51:15;8.20;99.90
7194;DHT22;3638;48.820;9.244;2023-04-01T04:53:44;8.10;99.90
7194;DHT22;3638;48.820;9.244;2023-04-01T04:56:12;8.20;99.90
7194;DHT22;3638;48.820;9.244;2023-04-01T04:58:39;8.10;99.90
7194;DHT22;3638;48.820;9.244;2023-04-01T05:01:08;8.00;99.90
7194;DHT22;3638;48.820;9.244;2023-04-01T05:03:36;8.10;99.90
7194;DHT22;3638;48.820;9.244;2023-04-01T05:06:04;8.10;99.90
7194;DHT22;3638;48.820;9.244;2023-04-01T05:08:32;8.10;99.90
7194;DHT22;3638;48.820;9.244;2023-04-01T05:10:59;8.00;99.90
7194;DHT22;3638;48.820;9.244;2023-04-01T05:13:27;8.00;99.90
7194;DHT22;3638;48.820;9.244;2023-04-01T05:15:55;8.00;99.90
7194;DHT22;3638;48.820;9.244;2023-04-01T05:18:21;8.20;99.90
7194;DHT22;3638;48.820;9.244;2023-04-01T05:20:51;8.20;99.90
7194;DHT22;3638;48.820;9.244;2023-04-01T05:23:19;8.20;99.90
7194;DHT22;3638;48.820;9.244;2023-04-01T05:25:47;8.20;99.90
7194;DHT22;3638;48.820;9.244;2023-04-01T05:28:15;8.20;99.90
7194;DHT22;3638;48.820;9.244;2023-04-01T05:30:44;8.20;99.90
7194;DHT22;3638;48.820;9.244;2023-04-01T05:33:11;8.30;99.90
7194;DHT22;3638;48.820;9.244;2023-04-01T05:35:39;8.40;99.90
7194;DHT22;3638;48.820;9.244;2023-04-01T05:38:06;8.30;99.90
7194;DHT22;3638;48.820;9.244;2023-04-01T05:40:33;8.50;99.90
7194;DHT22;3638;48.820;9.244;2023-04-01T05:43:00;8.60;99.90
7194;DHT22;3638;48.820;9.244;2023-04-01T05:45:27;8.60;99.90
7194;DHT22;3638;48.820;9.244;2023-04-01T05:47:55;8.80;99.90
7194;DHT22;3638;48.820;9.244;2023-04-01T05:50:22;8.80;99.90
7194;DHT22;3638;48.820;9.244;2023-04-01T05:52:49;8.80;99.90
7194;DHT22;3638;48.820;9.244;2023-04-01T05:55:17;8.90;99.90
7194;DHT22;3638;48.820;9.244;2023-04-01T05:57:45;9.00;99.90
7194;DHT22;3638;48.820;9.244;2023-04-01T06:00:14;9.00;99.90
7194;DHT22;3638;48.820;9.244;2023-04-01T06:02:42;9.10;99.90
7194;DHT22;3638;48.820;9.244;2023-04-01T06:05:15;9.20;99.90
7194;DHT22;3638;48.820;9.244;2023-04-01T06:07:44;9.30;99.90
7194;DHT22;3638;48.820;9.244;2023-04-01T06:10:16;9.40;99.90
7194;DHT22;3638;48.820;9.244;2023-04-01T06:12:58;9.50;99.90
7194;DHT22;3638;48.820;9.244;2023-04-01T06:15:41;9.60;99.90
7194;DHT22;3638;48.820;9.244;2023-04-01T06:18:27;9.70;99.90
7194;DHT22;3638;48.820;9.244;2023-04-01T06:21:21;9.70;99.90
7194;DHT22;3638;48.820;9.244;2023-04-01T06:24:04;9.70;99.90
7194;DHT22;3638;48.820;9.244;2023-04-01T06:26:45;9.70;99.90
7194;DHT22;3638;48.820;9.244;2023-04-01T06:29:34;9.80;99.90
7194;DHT22;3638;48.820;9.244;2023-04-01T06:32:24;10.00;99.90
7194;DHT22;3638;48.820;9.244;2023-04-01T06:35:26;10.10;99.90
7194;DHT22;3638;48.820;9.244;2023-04-01T06:38:23;10.30;99.90
7194;DHT22;3638;48.820;9.244;2023-04-01T06:41:12;10.40;99.90
7194;DHT22;3638;48.820;9.244;2023-04-01T06:44:12;10.30;99.90
7194;DHT22;3638;48.820;9.244;2023-04-01T06:46:45;10.40;99.90
7194;DHT22;3638;48.820;9.244;2023-04-01T06:49:33;10.30;99.90
7194;DHT22;3638;48.820;9.244;2023-04-01T06:52:18;10.20;99.90
7194;DHT22;3638;48.820;9.244;2023-04-01T06:54:55;10.10;99.90
7194;DHT22;3638;48.820;9.244;2023-04-01T06:57:31;10.10;99.90
7194;DHT22;3638;48.820;9.244;2023-04-01T07:00:02;10.10;99.90
7194;DHT22;3638;48.820;9.244;2023-04-01T07:02:36;10.20;99.90
7194;DHT22;3638;48.820;9.244;2023-04-01T07:05:07;10.20;99.90
7194;DHT22;3638;48.820;9.244;2023-04-01T07:07:38;10.30;99.90
7194;DHT22;3638;48.820;9.244;2023-04-01T07:10:14;10.30;99.90
7194;DHT22;3638;48.820;9.244;2023-04-01T07:12:47;10.40;99.90
7194;DHT22;3638;48.820;9.244;2023-04-01T07:15:19;10.40;99.90
7194;DHT22;3638;48.820;9.244;2023-04-01T07:17:52;10.50;99.90
7194;DHT22;3638;48.820;9.244;2023-04-01T07:20:23;10.50;99.90
7194;DHT22;3638;48.820;9.244;2023-04-01T07:22:54;10.60;99.90
7194;DHT22;3638;48.820;9.244;2023-04-01T07:25:27;10.60;99.90
7194;DHT22;3638;48.820;9.244;2023-04-01T07:28:00;10.50;99.90
7194;DHT22;3638;48.820;9.244;2023-04-01T07:30:38;10.50;99.90
7194;DHT22;3638;48.820;9.244;2023-04-01T07:33:16;10.60;99.90
7194;DHT22;3638;48.820;9.244;2023-04-01T07:35:51;10.60;99.90
7194;DHT22;3638;48.820;9.244;2023-04-01T07:38:30;10.60;99.90
7194;DHT22;3638;48.820;9.244;2023-04-01T07:41:10;10.60;99.90
7194;DHT22;3638;48.820;9.244;2023-04-01T07:43:56;10.50;99.90
7194;DHT22;3638;48.820;9.244;2023-04-01T07:46:53;10.50;99.90
7194;DHT22;3638;48.820;9.244;2023-04-01T07:49:29;10.50;99.90
7194;DHT22;3638;48.820;9.244;2023-04-01T07:52:05;10.40;99.90
7194;DHT22;3638;48.820;9.244;2023-04-01T07:54:39;10.40;99.90
7194;DHT22;3638;48.820;9.244;2023-04-01T07:57:14;10.50;99.90
7194;DHT22;3638;48.820;9.244;2023-04-01T07:59:48;10.40;99.90
7194;DHT22;3638;48.820;9.244;2023-04-01T08:02:34;10.40;99.90
7194;DHT22;3638;48.820;9.244;2023-04-01T08:05:15;10.50;99.90
7194;DHT22;3638;48.820;9.244;2023-04-01T08:07:50;10.60;99.90
7194;DHT22;3638;48.820;9.244;2023-04-01T08:10:26;10.70;99.90
7194;DHT22;3638;48.820;9.244;2023-04-01T08:13:03;10.90;99.90
7194;DHT22;3638;48.820;9.244;2023-04-01T08:15:40;10.80;99.90
7194;DHT22;3638;48.820;9.244;2023-04-01T08:18:18;10.70;99.90
7194;DHT22;3638;48.820;9.244;2023-04-01T08:20:51;10.90;99.90
7194;DHT22;3638;48.820;9.244;2023-04-01T08:23:24;11.00;99.90
7194;DHT22;3638;48.820;9.244;2023-04-01T08:25:56;11.10;99.90
7194;DHT22;3638;48.820;9.244;2023-04-01T08:28:33;11.20;99.90
7194;DHT22;3638;48.820;9.244;2023-04-01T08:31:06;11.10;99.90
7194;DHT22;3638;48.820;9.244;2023-04-01T08:33:36;11.10;99.90
7194;DHT22;3638;48.820;9.244;2023-04-01T08:36:07;11.10;99.90
7194;DHT22;3638;48.820;9.244;2023-04-01T08:38:40;11.00;99.90
7194;DHT22;3638;48.820;9.244;2023-04-01T08:41:29;11.00;99.90
7194;DHT22;3638;48.820;9.244;2023-04-01T08:44:27;10.80;99.90
7194;DHT22;3638;48.820;9.244;2023-04-01T08:47:26;10.80;99.90
7194;DHT22;3638;48.820;9.244;2023-04-01T08:50:36;10.60;99.90
7194;DHT22;3638;48.820;9.244;2023-04-01T08:53:16;10.50;99.90
7194;DHT22;3638;48.820;9.244;2023-04-01T08:55:56;10.40;99.90
7194;DHT22;3638;48.820;9.244;2023-04-01T08:58:48;10.20;99.90
7194;DHT22;3638;48.820;9.244;2023-04-01T09:01:52;10.10;99.90
7194;DHT22;3638;48.820;9.244;2023-04-01T09:04:30;10.20;99.90
7194;DHT22;3638;48.820;9.244;2023-04-01T09:07:21;10.20;99.90
7194;DHT22;3638;48.820;9.244;2023-04-01T09:10:23;10.10;99.90
7194;DHT22;3638;48.820;9.244;2023-04-01T09:13:08;10.00;99.90
7194;DHT22;3638;48.820;9.244;2023-04-01T09:19:11;10.10;99.90
7194;DHT22;3638;48.820;9.244;2023-04-01T09:21:53;10.20;99.90
7194;DHT22;3638;48.820;9.244;2023-04-01T09:24:56;10.50;99.90
7194;DHT22;3638;48.820;9.244;2023-04-01T09:27:45;10.50;99.90
7194;DHT22;3638;48.820;9.244;2023-04-01T09:30:33;10.60;99.90
7194;DHT22;3638;48.820;9.244;2023-04-01T09:36:24;10.70;99.90
7194;DHT22;3638;48.820;9.244;2023-04-01T09:39:18;10.90;99.90
7194;DHT22;3638;48.820;9.244;2023-04-01T09:42:13;11.20;99.90
7194;DHT22;3638;48.820;9.244;2023-04-01T09:44:46;11.20;99.90
7194;DHT22;3638;48.820;9.244;2023-04-01T09:47:28;11.50;99.90
7194;DHT22;3638;48.820;9.244;2023-04-01T09:50:21;11.40;99.90
7194;DHT22;3638;48.820;9.244;2023-04-01T09:53:06;11.30;99.90
7194;DHT22;3638;48.820;9.244;2023-04-01T09:59:15;11.00;99.90
7194;DHT22;3638;48.820;9.244;2023-04-01T10:02:48;11.00;99.90
7194;DHT22;3638;48.820;9.244;2023-04-01T10:06:12;10.90;99.90
7194;DHT22;3638;48.820;9.244;2023-04-01T10:16:09;11.10;99.90
7194;DHT22;3638;48.820;9.244;2023-04-01T10:19:14;11.10;99.90
7194;DHT22;3638;48.820;9.244;2023-04-01T10:22:23;11.00;99.90
7194;DHT22;3638;48.820;9.244;2023-04-01T10:25:26;11.00;99.90
7194;DHT22;3638;48.820;9.244;2023-04-01T10:28:35;11.20;99.90
7194;DHT22;3638;48.820;9.244;2023-04-01T10:31:35;11.30;99.90
7194;DHT22;3638;48.820;9.244;2023-04-01T10:37:59;11.40;99.90
7194;DHT22;3638;48.820;9.244;2023-04-01T10:40:44;11.60;99.90
7194;DHT22;3638;48.820;9.244;2023-04-01T10:43:40;11.30;99.90
7194;DHT22;3638;48.820;9.244;2023-04-01T10:46:43;11.40;99.90
7194;DHT22;3638;48.820;9.244;2023-04-01T10:50:04;11.30;99.90
7194;DHT22;3638;48.820;9.244;2023-04-01T10:56:27;11.20;99.90
7194;DHT22;3638;48.820;9.244;2023-04-01T11:02:57;11.20;99.90
7194;DHT22;3638;48.820;9.244;2023-04-01T11:05:59;11.60;99.90
7194;DHT22;3638;48.820;9.244;2023-04-01T11:09:14;11.50;99.90
7194;DHT22;3638;48.820;9.244;2023-04-01T11:12:05;11.40;99.90
7194;DHT22;3638;48.820;9.244;2023-04-01T11:15:11;11.60;99.90
7194;DHT22;3638;48.820;9.244;2023-04-01T11:18:36;11.70;99.90
7194;DHT22;3638;48.820;9.244;2023-04-01T11:24:57;11.80;99.90
7194;DHT22;3638;48.820;9.244;2023-04-01T11:27:52;12.00;99.90
7194;DHT22;3638;48.820;9.244;2023-04-01T11:30:39;12.30;99.90
7194;DHT22;3638;48.820;9.244;2023-04-01T11:33:17;12.50;99.90
7194;DHT22;3638;48.820;9.244;2023-04-01T11:36:11;12.90;99.90
7194;DHT22;3638;48.820;9.244;2023-04-01T11:39:00;13.00;99.90
7194;DHT22;3638;48.820;9.244;2023-04-01T11:41:40;13.00;99.90
7194;DHT22;3638;48.820;9.244;2023-04-01T11:44:18;12.70;99.90
7194;DHT22;3638;48.820;9.244;2023-04-01T11:47:09;12.70;99.90
7194;DHT22;3638;48.820;9.244;2023-04-01T11:49:56;12.80;99.90
7194;DHT22;3638;48.820;9.244;2023-04-01T11:52:53;12.80;99.90
7194;DHT22;3638;48.820;9.244;2023-04-01T11:55:32;12.90;99.90
7194;DHT22;3638;48.820;9.244;2023-04-01T11:58:28;12.90;99.90
7194;DHT22;3638;48.820;9.244;2023-04-01T12:01:23;13.00;99.90
7194;DHT22;3638;48.820;9.244;2023-04-01T12:04:21;12.90;99.90
7194;DHT22;3638;48.820;9.244;2023-04-01T12:07:00;12.70;99.90
7194;DHT22;3638;48.820;9.244;2023-04-01T12:09:35;12.40;99.90
7194;DHT22;3638;48.820;9.244;2023-04-01T12:12:14;12.30;99.90
7194;DHT22;3638;48.820;9.244;2023-04-01T12:14:50;12.30;99.90
7194;DHT22;3638;48.820;9.244;2023-04-01T12:17:35;12.20;99.90
7194;DHT22;3638;48.820;9.244;2023-04-01T12:20:24;12.20;99.90
7194;DHT22;3638;48.820;9.244;2023-04-01T12:23:01;12.30;99.90
7194;DHT22;3638;48.820;9.244;2023-04-01T12:26:05;12.30;99.90
7194;DHT22;3638;48.820;9.244;2023-04-01T12:28:49;12.20;99.90
7194;DHT22;3638;48.820;9.244;2023-04-01T12:31:34;12.10;99.90
7194;DHT22;3638;48.820;9.244;2023-04-01T12:37:22;12.30;99.90
7194;DHT22;3638;48.820;9.244;2023-04-01T12:40:06;12.30;99.90
7194;DHT22;3638;48.820;9.244;2023-04-01T12:42:56;12.40;99.90
7194;DHT22;3638;48.820;9.244;2023-04-01T12:45:30;12.30;99.90
7194;DHT22;3638;48.820;9.244;2023-04-01T12:51:46;12.40;99.90
7194;DHT22;3638;48.820;9.244;2023-04-01T12:54:46;12.50;99.90
7194;DHT22;3638;48.820;9.244;2023-04-01T12:57:45;12.50;99.90
7194;DHT22;3638;48.820;9.244;2023-04-01T13:00:36;12.30;99.90
7194;DHT22;3638;48.820;9.244;2023-04-01T13:03:19;12.20;99.90
7194;DHT22;3638;48.820;9.244;2023-04-01T13:09:20;12.40;99.90
7194;DHT22;3638;48.820;9.244;2023-04-01T13:12:16;12.40;99.90
7194;DHT22;3638;48.820;9.244;2023-04-01T13:15:23;12.60;99.90
7194;DHT22;3638;48.820;9.244;2023-04-01T13:17:56;12.30;99.90
7194;DHT22;3638;48.820;9.244;2023-04-01T13:20:40;12.20;99.90
7194;DHT22;3638;48.820;9.244;2023-04-01T13:23:38;12.50;99.90
7194;DHT22;3638;48.820;9.244;2023-04-01T13:26:18;12.60;99.90
7194;DHT22;3638;48.820;9.244;2023-04-01T13:28:55;12.40;99.90
7194;DHT22;3638;48.820;9.244;2023-04-01T13:31:33;12.50;99.90
7194;DHT22;3638;48.820;9.244;2023-04-01T13:34:19;12.60;99.90
7194;DHT22;3638;48.820;9.244;2023-04-01T13:36:59;12.50;99.90
7194;DHT22;3638;48.820;9.244;2023-04-01T13:39:46;12.60;99.90
7194;DHT22;3638;48.820;9.244;2023-04-01T13:42:35;12.50;99.90
7194;DHT22;3638;48.820;9.244;2023-04-01T13:45:13;12.50;99.90
7194;DHT22;3638;48.820;9.244;2023-04-01T13:48:05;12.50;99.90
7194;DHT22;3638;48.820;9.244;2023-04-01T13:57:40;12.60;99.90
7194;DHT22;3638;48.820;9.244;2023-04-01T14:00:22;12.60;99.90
7194;DHT22;3638;48.820;9.244;2023-04-01T14:03:28;12.70;99.90
7194;DHT22;3638;48.820;9.244;2023-04-01T14:06:06;12.80;99.90
7194;DHT22;3638;48.820;9.244;2023-04-01T14:08:55;12.80;99.90
7194;DHT22;3638;48.820;9.244;2023-04-01T14:11:37;12.70;99.90
7194;DHT22;3638;48.820;9.244;2023-04-01T14:14:17;12.50;99.90
7194;DHT22;3638;48.820;9.244;2023-04-01T14:17:07;12.50;99.90
7194;DHT22;3638;48.820;9.244;2023-04-01T14:20:19;12.40;99.90
7194;DHT22;3638;48.820;9.244;2023-04-01T14:26:09;12.20;99.90
7194;DHT22;3638;48.820;9.244;2023-04-01T14:28:46;12.20;99.90
7194;DHT22;3638;48.820;9.244;2023-04-01T14:31:27;12.20;99.90
7194;DHT22;3638;48.820;9.244;2023-04-01T14:34:11;12.30;99.90
7194;DHT22;3638;48.820;9.244;2023-04-01T14:37:07;12.30;99.90
7194;DHT22;3638;48.820;9.244;2023-04-01T14:40:06;11.80;99.90
7194;DHT22;3638;48.820;9.244;2023-04-01T14:43:20;11.70;99.90
7194;DHT22;3638;48.820;9.244;2023-04-01T14:46:17;11.60;99.90
7194;DHT22;3638;48.820;9.244;2023-04-01T14:48:56;11.40;99.90
7194;DHT22;3638;48.820;9.244;2023-04-01T14:51:29;11.30;99.90
7194;DHT22;3638;48.820;9.244;2023-04-01T14:54:05;11.30;99.90
7194;DHT22;3638;48.820;9.244;2023-04-01T14:56:37;11.40;99.90
7194;DHT22;3638;48.820;9.244;2023-04-01T14:59:10;11.40;99.90
7194;DHT22;3638;48.820;9.244;2023-04-01T15:01:47;11.60;99.90
7194;DHT22;3638;48.820;9.244;2023-04-01T15:04:37;11.60;99.90
7194;DHT22;3638;48.820;9.244;2023-04-01T15:07:21;11.60;99.90
7194;DHT22;3638;48.820;9.244;2023-04-01T15:10:27;11.60;99.90
7194;DHT22;3638;48.820;9.244;2023-04-01T15:13:25;11.70;99.90
7194;DHT22;3638;48.820;9.244;2023-04-01T15:16:11;11.90;99.90
7194;DHT22;3638;48.820;9.244;2023-04-01T15:18:53;11.90;99.90
7194;DHT22;3638;48.820;9.244;2023-04-01T15:21:59;11.90;99.90
7194;DHT22;3638;48.820;9.244;2023-04-01T15:24:43;12.00;99.90
7194;DHT22;3638;48.820;9.244;2023-04-01T15:27:29;12.00;99.90
7194;DHT22;3638;48.820;9.244;2023-04-01T15:30:17;11.90;99.90
7194;DHT22;3638;48.820;9.244;2023-04-01T15:36:20;11.80;99.90
7194;DHT22;3638;48.820;9.244;2023-04-01T15:39:00;11.70;99.90
7194;DHT22;3638;48.820;9.244;2023-04-01T15:41:42;11.70;99.90
7194;DHT22;3638;48.820;9.244;2023-04-01T15:44:58;11.70;99.90
7194;DHT22;3638;48.820;9.244;2023-04-01T15:47:36;11.80;99.90
7194;DHT22;3638;48.820;9.244;2023-04-01T15:50:34;11.80;99.90
7194;DHT22;3638;48.820;9.244;2023-04-01T15:53:29;11.70;99.90
7194;DHT22;3638;48.820;9.244;2023-04-01T15:56:16;11.70;99.90
7194;DHT22;3638;48.820;9.244;2023-04-01T15:58:59;11.90;99.90
7194;DHT22;3638;48.820;9.244;2023-04-01T16:01:38;12.00;99.90
7194;DHT22;3638;48.820;9.244;2023-04-01T16:04:27;11.80;99.90
7194;DHT22;3638;48.820;9.244;2023-04-01T16:07:10;11.80;99.90
7194;DHT22;3638;48.820;9.244;2023-04-01T16:09:59;11.80;99.90
7194;DHT22;3638;48.820;9.244;2023-04-01T16:12:46;11.70;99.90
7194;DHT22;3638;48.820;9.244;2023-04-01T16:15:25;11.60;99.90
7194;DHT22;3638;48.820;9.244;2023-04-01T16:18:17;11.60;99.90
7194;DHT22;3638;48.820;9.244;2023-04-01T16:20:54;11.60;99.90
7194;DHT22;3638;48.820;9.244;2023-04-01T16:23:26;11.70;99.90
7194;DHT22;3638;48.820;9.244;2023-04-01T16:26:05;11.60;99.90
7194;DHT22;3638;48.820;9.244;2023-04-01T16:28:38;11.50;99.90
7194;DHT22;3638;48.820;9.244;2023-04-01T16:31:13;11.50;99.90
7194;DHT22;3638;48.820;9.244;2023-04-01T16:33:49;11.50;99.90
7194;DHT22;3638;48.820;9.244;2023-04-01T16:36:26;11.50;99.90
7194;DHT22;3638;48.820;9.244;2023-04-01T16:39:15;11.50;99.90
7194;DHT22;3638;48.820;9.244;2023-04-01T16:41:57;11.40;99.90
7194;DHT22;3638;48.820;9.244;2023-04-01T16:44:48;11.40;99.90
7194;DHT22;3638;48.820;9.244;2023-04-01T16:47:19;11.40;99.90
7194;DHT22;3638;48.820;9.244;2023-04-01T16:49:51;11.40;99.90
7194;DHT22;3638;48.820;9.244;2023-04-01T16:52:35;11.40;99.90
7194;DHT22;3638;48.820;9.244;2023-04-01T16:55:16;11.40;99.90
7194;DHT22;3638;48.820;9.244;2023-04-01T16:57:50;11.40;99.90
7194;DHT22;3638;48.820;9.244;2023-04-01T17:00:24;11.30;99.90
7194;DHT22;3638;48.820;9.244;2023-04-01T17:03:02;11.20;99.90
7194;DHT22;3638;48.820;9.244;2023-04-01T17:05:40;11.20;99.90
7194;DHT22;3638;48.820;9.244;2023-04-01T17:08:28;11.30;99.90
7194;DHT22;3638;48.820;9.244;2023-04-01T17:11:10;11.30;99.90
7194;DHT22;3638;48.820;9.244;2023-04-01T17:13:46;11.30;99.90
7194;DHT22;3638;48.820;9.244;2023-04-01T17:16:45;11.30;99.90
7194;DHT22;3638;48.820;9.244;2023-04-01T17:19:47;11.30;99.90
7194;DHT22;3638;48.820;9.244;2023-04-01T17:22:27;11.30;99.90
7194;DHT22;3638;48.820;9.244;2023-04-01T17:25:14;11.20;99.90
7194;DHT22;3638;48.820;9.244;2023-04-01T17:27:54;11.30;99.90
7194;DHT22;3638;48.820;9.244;2023-04-01T17:30:30;11.30;99.90
7194;DHT22;3638;48.820;9.244;2023-04-01T17:33:16;11.30;99.90
7194;DHT22;3638;48.820;9.244;2023-04-01T17:35:59;11.20;99.90
7194;DHT22;3638;48.820;9.244;2023-04-01T17:38:56;11.20;99.90
7194;DHT22;3638;48.820;9.244;2023-04-01T17:41:36;11.20;99.90
7194;DHT22;3638;48.820;9.244;2023-04-01T17:44:22;11.20;99.90
7194;DHT22;3638;48.820;9.244;2023-04-01T17:47:08;11.10;99.90
7194;DHT22;3638;48.820;9.244;2023-04-01T17:49:43;11.20;99.90
7194;DHT22;3638;48.820;9.244;2023-04-01T17:52:19;11.10;99.90
7194;DHT22;3638;48.820;9.244;2023-04-01T17:54:57;11.20;99.90
7194;DHT22;3638;48.820;9.244;2023-04-01T17:57:46;11.20;99.90
7194;DHT22;3638;48.820;9.244;2023-04-01T18:00:25;11.00;99.90
7194;DHT22;3638;48.820;9.244;2023-04-01T18:03:09;11.00;99.90
7194;DHT22;3638;48.820;9.244;2023-04-01T18:05:51;11.00;99.90
7194;DHT22;3638;48.820;9.244;2023-04-01T18:08:38;11.00;99.90
7194;DHT22;3638;48.820;9.244;2023-04-01T18:11:15;10.90;99.90
7194;DHT22;3638;48.820;9.244;2023-04-01T18:14:15;10.80;99.90
7194;DHT22;3638;48.820;9.244;2023-04-01T18:20:02;10.50;99.90
7194;DHT22;3638;48.820;9.244;2023-04-01T18:22:39;10.40;99.90
7194;DHT22;3638;48.820;9.244;2023-04-01T18:25:17;10.30;99.90